Vaduz, Switzerland

12:46 AM CET on January 23, 2017 (GMT +0100)
IOBERLAN3 | | Change Station

Elev 1690 ft 47.15 °N, 9.52 °E | Updated 9 minutes ago

Clear
Clear
16.0 °F
Feels Like 16 °F
N
0.0
Wind Variable Wind from SSW
Gusts 1.0 mph

Today
High -- | Low -- °F
--% Chance of Precip.
Yesterday
High -- | Low -- °F
Precip. -- in
Pressure 30.24 in
Visibility 1.4 miles
Clouds Overcast 300 ft
Mostly Cloudy 11000 ft
Windchill 16 °F
Dew Point 13 °F
Humidity 87%
Rainfall 0.00 in
Snow Depth Not available.
7:57 AM 5:10 PM
Waning Crescent, 23% visible
METAR LSZR 222320Z AUTO 10005KT 2200 BR OVC003 BKN110 M06/M06 Q1024
Pressure 30.24 in
Visibility 1.4 miles
Clouds Overcast 300 ft
Mostly Cloudy 11000 ft
Windchill 16 °F
Dew Point 13 °F
Humidity 87%
Rainfall 0.00 in
Snow Depth Not available.
7:57 AM 5:10 PM
Waning Crescent, 23% visible
METAR LSZR 222320Z AUTO 10005KT 2200 BR OVC003 BKN110 M06/M06 Q1024

Get Your Daily Forecast Email!

Thanks for signing up!

Be on the lookout for a verification email in your inbox.

You'll start receiving the daily forecast at 8 AM.

×

10-Day Weather Forecast

×

Almanac

Astronomy

Jan. 23, 2017 Rise Set
Actual Time
Civil Twilight
Nautical Twilight
Astronomical Twilight
Moon
Length of Visible Light
Length of Day
Tomorrow will be .
, % of the Moon is Illuminated

Today's Extremes

Country Highs Country Lows

Community

WunderPhotos

Upload Photos

1,962,540 photos uploaded!

WunderBlog® & News

Nearby

Air Quality

  Air Quality AQ Index Pollutant
Not available.

Snow Depth

Station Depth Elevation

Earthquake Activity

City Distance Mag. Time & Date
Minimum magnitude displayed is 2.5.

Coastal Water Temperatures

Place Temperature

Stations

Nearby Weather Stations

Station Location Temp. Windchill Dew Point Humidity Wind Precip. Elev Updated Type